sensor_id;sensor_type;location;lat;lon;timestamp;temperature;humidity
22629;DHT22;11481;53.694;9.910;2022-10-16T00:01:19;15.00;99.90
22629;DHT22;11481;53.694;9.910;2022-10-16T00:03:47;14.90;99.90
22629;DHT22;11481;53.694;9.910;2022-10-16T00:06:15;14.80;99.90
22629;DHT22;11481;53.694;9.910;2022-10-16T00:08:42;14.70;99.90
22629;DHT22;11481;53.694;9.910;2022-10-16T00:11:15;14.70;99.90
22629;DHT22;11481;53.694;9.910;2022-10-16T00:13:43;14.70;99.90
22629;DHT22;11481;53.694;9.910;2022-10-16T00:16:11;14.60;99.90
22629;DHT22;11481;53.694;9.910;2022-10-16T00:18:39;14.70;99.90
22629;DHT22;11481;53.694;9.910;2022-10-16T00:21:11;14.60;99.90
22629;DHT22;11481;53.694;9.910;2022-10-16T00:23:39;14.50;99.90
22629;DHT22;11481;53.694;9.910;2022-10-16T00:26:09;14.60;99.90
22629;DHT22;11481;53.694;9.910;2022-10-16T00:28:36;14.50;99.90
22629;DHT22;11481;53.694;9.910;2022-10-16T00:31:05;14.50;99.90
22629;DHT22;11481;53.694;9.910;2022-10-16T00:33:32;14.60;99.90
22629;DHT22;11481;53.694;9.910;2022-10-16T00:35:59;14.60;99.90
22629;DHT22;11481;53.694;9.910;2022-10-16T00:38:26;14.60;99.90
22629;DHT22;11481;53.694;9.910;2022-10-16T00:40:53;14.60;99.90
22629;DHT22;11481;53.694;9.910;2022-10-16T00:43:44;14.60;99.90
22629;DHT22;11481;53.694;9.910;2022-10-16T00:46:23;14.70;99.90
22629;DHT22;11481;53.694;9.910;2022-10-16T00:48:57;14.60;99.90
22629;DHT22;11481;53.694;9.910;2022-10-16T00:51:33;14.50;99.90
22629;DHT22;11481;53.694;9.910;2022-10-16T00:54:01;14.50;99.90
22629;DHT22;11481;53.694;9.910;2022-10-16T00:56:28;14.60;99.90
22629;DHT22;11481;53.694;9.910;2022-10-16T00:58:55;14.60;99.90
22629;DHT22;11481;53.694;9.910;2022-10-16T01:01:22;14.50;99.90
22629;DHT22;11481;53.694;9.910;2022-10-16T01:03:48;14.40;99.90
22629;DHT22;11481;53.694;9.910;2022-10-16T01:06:24;14.40;99.90
22629;DHT22;11481;53.694;9.910;2022-10-16T01:09:20;14.40;99.90
22629;DHT22;11481;53.694;9.910;2022-10-16T01:12:06;14.50;99.90
22629;DHT22;11481;53.694;9.910;2022-10-16T01:14:55;14.50;99.90
22629;DHT22;11481;53.694;9.910;2022-10-16T01:17:53;14.50;99.90
22629;DHT22;11481;53.694;9.910;2022-10-16T01:20:33;14.50;99.90
22629;DHT22;11481;53.694;9.910;2022-10-16T01:28:09;14.50;99.90
22629;DHT22;11481;53.694;9.910;2022-10-16T01:30:40;14.40;99.90
22629;DHT22;11481;53.694;9.910;2022-10-16T01:33:15;14.40;99.90
22629;DHT22;11481;53.694;9.910;2022-10-16T01:35:51;14.30;99.90
22629;DHT22;11481;53.694;9.910;2022-10-16T01:38:26;14.30;99.90
22629;DHT22;11481;53.694;9.910;2022-10-16T01:41:00;14.20;99.90
22629;DHT22;11481;53.694;9.910;2022-10-16T01:43:31;14.20;99.90
22629;DHT22;11481;53.694;9.910;2022-10-16T01:46:00;14.20;99.90
22629;DHT22;11481;53.694;9.910;2022-10-16T01:48:29;14.20;99.90
22629;DHT22;11481;53.694;9.910;2022-10-16T01:51:05;14.30;99.90
22629;DHT22;11481;53.694;9.910;2022-10-16T01:53:33;14.30;99.90
22629;DHT22;11481;53.694;9.910;2022-10-16T01:56:00;14.20;99.90
22629;DHT22;11481;53.694;9.910;2022-10-16T01:58:28;14.10;99.90
22629;DHT22;11481;53.694;9.910;2022-10-16T02:01:02;14.10;99.90
22629;DHT22;11481;53.694;9.910;2022-10-16T02:03:32;14.10;99.90
22629;DHT22;11481;53.694;9.910;2022-10-16T02:06:00;14.10;99.90
22629;DHT22;11481;53.694;9.910;2022-10-16T02:08:28;14.20;99.90
22629;DHT22;11481;53.694;9.910;2022-10-16T02:10:57;14.20;99.90
22629;DHT22;11481;53.694;9.910;2022-10-16T02:15:54;14.10;99.90
22629;DHT22;11481;53.694;9.910;2022-10-16T02:18:21;14.00;99.90
22629;DHT22;11481;53.694;9.910;2022-10-16T02:20:53;14.00;99.90
22629;DHT22;11481;53.694;9.910;2022-10-16T02:23:32;14.00;99.90
22629;DHT22;11481;53.694;9.910;2022-10-16T02:26:03;13.90;99.90
22629;DHT22;11481;53.694;9.910;2022-10-16T02:28:41;13.90;99.90
22629;DHT22;11481;53.694;9.910;2022-10-16T02:31:12;13.90;99.90
22629;DHT22;11481;53.694;9.910;2022-10-16T02:33:43;13.90;99.90
22629;DHT22;11481;53.694;9.910;2022-10-16T02:36:10;13.90;99.90
22629;DHT22;11481;53.694;9.910;2022-10-16T02:38:38;13.90;99.90
22629;DHT22;11481;53.694;9.910;2022-10-16T02:41:06;13.90;99.90
22629;DHT22;11481;53.694;9.910;2022-10-16T02:43:32;13.80;99.90
22629;DHT22;11481;53.694;9.910;2022-10-16T02:46:00;13.80;99.90
22629;DHT22;11481;53.694;9.910;2022-10-16T02:48:27;13.80;99.90
22629;DHT22;11481;53.694;9.910;2022-10-16T02:50:53;13.70;99.90
22629;DHT22;11481;53.694;9.910;2022-10-16T02:53:20;13.60;99.90
22629;DHT22;11481;53.694;9.910;2022-10-16T02:55:46;13.70;99.90
22629;DHT22;11481;53.694;9.910;2022-10-16T02:58:13;13.60;99.90
22629;DHT22;11481;53.694;9.910;2022-10-16T03:00:39;13.60;99.90
22629;DHT22;11481;53.694;9.910;2022-10-16T03:03:06;13.50;99.90
22629;DHT22;11481;53.694;9.910;2022-10-16T03:05:33;13.50;99.90
22629;DHT22;11481;53.694;9.910;2022-10-16T03:07:59;13.50;99.90
22629;DHT22;11481;53.694;9.910;2022-10-16T03:10:27;13.50;99.90
22629;DHT22;11481;53.694;9.910;2022-10-16T03:12:53;13.40;99.90
22629;DHT22;11481;53.694;9.910;2022-10-16T03:15:20;13.40;99.90
22629;DHT22;11481;53.694;9.910;2022-10-16T03:17:46;13.40;99.90
22629;DHT22;11481;53.694;9.910;2022-10-16T03:20:13;13.40;99.90
22629;DHT22;11481;53.694;9.910;2022-10-16T03:22:40;13.40;99.90
22629;DHT22;11481;53.694;9.910;2022-10-16T03:25:07;13.30;99.90
22629;DHT22;11481;53.694;9.910;2022-10-16T03:27:33;13.30;99.90
22629;DHT22;11481;53.694;9.910;2022-10-16T03:30:00;13.30;99.90
22629;DHT22;11481;53.694;9.910;2022-10-16T03:32:27;13.20;99.90
22629;DHT22;11481;53.694;9.910;2022-10-16T03:34:55;13.20;99.90
22629;DHT22;11481;53.694;9.910;2022-10-16T03:37:22;13.20;99.90
22629;DHT22;11481;53.694;9.910;2022-10-16T03:39:50;13.20;99.90
22629;DHT22;11481;53.694;9.910;2022-10-16T03:42:16;13.10;99.90
22629;DHT22;11481;53.694;9.910;2022-10-16T03:44:43;13.10;99.90
22629;DHT22;11481;53.694;9.910;2022-10-16T03:47:09;13.10;99.90
22629;DHT22;11481;53.694;9.910;2022-10-16T03:49:36;13.10;99.90
22629;DHT22;11481;53.694;9.910;2022-10-16T03:52:02;13.20;99.90
22629;DHT22;11481;53.694;9.910;2022-10-16T03:54:29;13.30;99.90
22629;DHT22;11481;53.694;9.910;2022-10-16T03:56:56;13.30;99.90
22629;DHT22;11481;53.694;9.910;2022-10-16T03:59:22;13.30;99.90
22629;DHT22;11481;53.694;9.910;2022-10-16T04:01:49;13.30;99.90
22629;DHT22;11481;53.694;9.910;2022-10-16T04:04:15;13.30;99.90
22629;DHT22;11481;53.694;9.910;2022-10-16T04:06:42;13.30;99.90
22629;DHT22;11481;53.694;9.910;2022-10-16T04:09:08;13.20;99.90
22629;DHT22;11481;53.694;9.910;2022-10-16T04:11:36;13.20;99.90
22629;DHT22;11481;53.694;9.910;2022-10-16T04:14:03;13.20;99.90
22629;DHT22;11481;53.694;9.910;2022-10-16T04:16:29;13.20;99.90
22629;DHT22;11481;53.694;9.910;2022-10-16T04:18:56;13.10;99.90
22629;DHT22;11481;53.694;9.910;2022-10-16T04:21:23;13.10;99.90
22629;DHT22;11481;53.694;9.910;2022-10-16T04:23:51;13.10;99.90
22629;DHT22;11481;53.694;9.910;2022-10-16T04:26:18;13.10;99.90
22629;DHT22;11481;53.694;9.910;2022-10-16T04:28:44;13.10;99.90
22629;DHT22;11481;53.694;9.910;2022-10-16T04:31:11;13.10;99.90
22629;DHT22;11481;53.694;9.910;2022-10-16T04:33:38;13.10;99.90
22629;DHT22;11481;53.694;9.910;2022-10-16T04:36:04;13.10;99.90
22629;DHT22;11481;53.694;9.910;2022-10-16T04:38:31;13.20;99.90
22629;DHT22;11481;53.694;9.910;2022-10-16T04:40:58;13.10;99.90
22629;DHT22;11481;53.694;9.910;2022-10-16T04:43:24;13.00;99.90
22629;DHT22;11481;53.694;9.910;2022-10-16T04:45:51;13.10;99.90
22629;DHT22;11481;53.694;9.910;2022-10-16T04:48:18;13.00;99.90
22629;DHT22;11481;53.694;9.910;2022-10-16T04:50:45;13.00;99.90
22629;DHT22;11481;53.694;9.910;2022-10-16T04:53:17;13.00;99.90
22629;DHT22;11481;53.694;9.910;2022-10-16T04:55:44;13.00;99.90
22629;DHT22;11481;53.694;9.910;2022-10-16T04:58:10;13.00;99.90
22629;DHT22;11481;53.694;9.910;2022-10-16T05:00:37;13.10;99.90
22629;DHT22;11481;53.694;9.910;2022-10-16T05:03:04;13.00;99.90
22629;DHT22;11481;53.694;9.910;2022-10-16T05:05:36;13.00;99.90
22629;DHT22;11481;53.694;9.910;2022-10-16T05:08:03;13.00;99.90
22629;DHT22;11481;53.694;9.910;2022-10-16T05:10:30;13.00;99.90
22629;DHT22;11481;53.694;9.910;2022-10-16T05:12:57;13.00;99.90
22629;DHT22;11481;53.694;9.910;2022-10-16T05:15:24;13.10;99.90
22629;DHT22;11481;53.694;9.910;2022-10-16T05:17:55;13.00;99.90
22629;DHT22;11481;53.694;9.910;2022-10-16T05:20:23;13.00;99.90
22629;DHT22;11481;53.694;9.910;2022-10-16T05:22:50;13.10;99.90
22629;DHT22;11481;53.694;9.910;2022-10-16T05:25:17;13.10;99.90
22629;DHT22;11481;53.694;9.910;2022-10-16T05:27:46;13.10;99.90
22629;DHT22;11481;53.694;9.910;2022-10-16T05:30:13;13.10;99.90
22629;DHT22;11481;53.694;9.910;2022-10-16T05:32:40;13.10;99.90
22629;DHT22;11481;53.694;9.910;2022-10-16T05:35:07;13.20;99.90
22629;DHT22;11481;53.694;9.910;2022-10-16T05:37:38;13.20;99.90
22629;DHT22;11481;53.694;9.910;2022-10-16T05:40:05;13.10;99.90
22629;DHT22;11481;53.694;9.910;2022-10-16T05:42:31;13.10;99.90
22629;DHT22;11481;53.694;9.910;2022-10-16T05:44:58;13.10;99.90
22629;DHT22;11481;53.694;9.910;2022-10-16T05:47:25;13.20;99.90
22629;DHT22;11481;53.694;9.910;2022-10-16T05:49:52;13.20;99.90
22629;DHT22;11481;53.694;9.910;2022-10-16T05:52:18;13.20;99.90
22629;DHT22;11481;53.694;9.910;2022-10-16T05:55:09;13.10;99.90
22629;DHT22;11481;53.694;9.910;2022-10-16T05:57:35;13.10;99.90
22629;DHT22;11481;53.694;9.910;2022-10-16T06:00:04;13.10;99.90
22629;DHT22;11481;53.694;9.910;2022-10-16T06:02:31;13.10;99.90
22629;DHT22;11481;53.694;9.910;2022-10-16T06:04:57;13.10;99.90
22629;DHT22;11481;53.694;9.910;2022-10-16T06:07:24;13.00;99.90
22629;DHT22;11481;53.694;9.910;2022-10-16T06:09:52;13.00;99.90
22629;DHT22;11481;53.694;9.910;2022-10-16T06:12:18;13.10;99.90
22629;DHT22;11481;53.694;9.910;2022-10-16T06:14:46;13.10;99.90
22629;DHT22;11481;53.694;9.910;2022-10-16T06:17:15;13.10;99.90
22629;DHT22;11481;53.694;9.910;2022-10-16T06:19:42;13.10;99.90
22629;DHT22;11481;53.694;9.910;2022-10-16T06:22:09;13.20;99.90
22629;DHT22;11481;53.694;9.910;2022-10-16T06:24:36;13.10;99.90
22629;DHT22;11481;53.694;9.910;2022-10-16T06:27:04;13.10;99.90
22629;DHT22;11481;53.694;9.910;2022-10-16T06:29:31;13.10;99.90
22629;DHT22;11481;53.694;9.910;2022-10-16T06:31:57;13.00;99.90
22629;DHT22;11481;53.694;9.910;2022-10-16T06:34:24;13.00;99.90
22629;DHT22;11481;53.694;9.910;2022-10-16T06:36:50;13.00;99.90
22629;DHT22;11481;53.694;9.910;2022-10-16T06:39:17;13.10;99.90
22629;DHT22;11481;53.694;9.910;2022-10-16T06:41:43;13.10;99.90
22629;DHT22;11481;53.694;9.910;2022-10-16T06:44:10;13.10;99.90
22629;DHT22;11481;53.694;9.910;2022-10-16T06:46:37;13.10;99.90
22629;DHT22;11481;53.694;9.910;2022-10-16T06:49:03;13.30;99.90
22629;DHT22;11481;53.694;9.910;2022-10-16T06:51:30;13.30;99.90
22629;DHT22;11481;53.694;9.910;2022-10-16T06:53:58;13.30;99.90
22629;DHT22;11481;53.694;9.910;2022-10-16T06:56:31;13.40;99.90
22629;DHT22;11481;53.694;9.910;2022-10-16T06:58:58;13.40;99.90
22629;DHT22;11481;53.694;9.910;2022-10-16T07:01:26;13.50;99.90
22629;DHT22;11481;53.694;9.910;2022-10-16T07:03:53;13.50;99.90
22629;DHT22;11481;53.694;9.910;2022-10-16T07:06:22;13.50;99.90
22629;DHT22;11481;53.694;9.910;2022-10-16T07:08:50;13.60;99.90
22629;DHT22;11481;53.694;9.910;2022-10-16T07:11:19;13.70;99.90
22629;DHT22;11481;53.694;9.910;2022-10-16T07:13:46;13.70;99.90
22629;DHT22;11481;53.694;9.910;2022-10-16T07:16:23;13.70;99.90
22629;DHT22;11481;53.694;9.910;2022-10-16T07:18:50;13.70;99.90
22629;DHT22;11481;53.694;9.910;2022-10-16T07:21:22;13.80;99.90
22629;DHT22;11481;53.694;9.910;2022-10-16T07:23:53;13.80;99.90
22629;DHT22;11481;53.694;9.910;2022-10-16T07:26:20;13.80;99.90
22629;DHT22;11481;53.694;9.910;2022-10-16T07:28:48;14.00;99.90
22629;DHT22;11481;53.694;9.910;2022-10-16T07:31:17;14.00;99.90
22629;DHT22;11481;53.694;9.910;2022-10-16T07:33:46;14.10;99.90
22629;DHT22;11481;53.694;9.910;2022-10-16T07:36:15;14.10;99.90
22629;DHT22;11481;53.694;9.910;2022-10-16T07:38:44;14.10;99.90
22629;DHT22;11481;53.694;9.910;2022-10-16T07:41:13;14.10;99.90
22629;DHT22;11481;53.694;9.910;2022-10-16T07:43:39;14.10;99.90
22629;DHT22;11481;53.694;9.910;2022-10-16T07:46:06;14.20;99.90
22629;DHT22;11481;53.694;9.910;2022-10-16T07:48:34;14.30;99.90
22629;DHT22;11481;53.694;9.910;2022-10-16T07:51:03;14.30;99.90
22629;DHT22;11481;53.694;9.910;2022-10-16T07:53:29;14.30;99.90
22629;DHT22;11481;53.694;9.910;2022-10-16T07:56:04;14.30;99.90
22629;DHT22;11481;53.694;9.910;2022-10-16T07:58:33;14.30;99.90
22629;DHT22;11481;53.694;9.910;2022-10-16T08:01:04;14.30;99.90
22629;DHT22;11481;53.694;9.910;2022-10-16T08:03:31;14.30;99.90
22629;DHT22;11481;53.694;9.910;2022-10-16T08:05:58;14.20;99.90
22629;DHT22;11481;53.694;9.910;2022-10-16T08:08:27;14.30;99.90
22629;DHT22;11481;53.694;9.910;2022-10-16T08:10:55;14.30;99.90
22629;DHT22;11481;53.694;9.910;2022-10-16T08:13:22;14.40;99.90
22629;DHT22;11481;53.694;9.910;2022-10-16T08:15:48;14.50;99.90
22629;DHT22;11481;53.694;9.910;2022-10-16T08:18:16;14.40;99.90
22629;DHT22;11481;53.694;9.910;2022-10-16T08:20:43;14.50;99.90
22629;DHT22;11481;53.694;9.910;2022-10-16T08:23:11;14.50;99.90
22629;DHT22;11481;53.694;9.910;2022-10-16T08:25:38;14.50;99.90
22629;DHT22;11481;53.694;9.910;2022-10-16T08:28:06;14.60;99.90
22629;DHT22;11481;53.694;9.910;2022-10-16T08:30:33;14.70;99.90
22629;DHT22;11481;53.694;9.910;2022-10-16T08:33:01;14.70;99.90
22629;DHT22;11481;53.694;9.910;2022-10-16T08:35:27;14.80;99.90
22629;DHT22;11481;53.694;9.910;2022-10-16T08:37:54;14.90;99.90
22629;DHT22;11481;53.694;9.910;2022-10-16T08:40:24;14.90;99.90
22629;DHT22;11481;53.694;9.910;2022-10-16T08:50:44;15.20;99.90
22629;DHT22;11481;53.694;9.910;2022-10-16T08:53:33;15.40;99.90
22629;DHT22;11481;53.694;9.910;2022-10-16T08:56:03;15.50;99.90
22629;DHT22;11481;53.694;9.910;2022-10-16T08:58:30;15.50;99.90
22629;DHT22;11481;53.694;9.910;2022-10-16T09:01:03;15.60;99.90
22629;DHT22;11481;53.694;9.910;2022-10-16T09:18:09;15.90;99.90
22629;DHT22;11481;53.694;9.910;2022-10-16T09:23:37;15.90;99.90
22629;DHT22;11481;53.694;9.910;2022-10-16T09:26:05;16.00;99.90
22629;DHT22;11481;53.694;9.910;2022-10-16T09:28:36;16.10;99.90
22629;DHT22;11481;53.694;9.910;2022-10-16T09:31:02;16.30;99.90
22629;DHT22;11481;53.694;9.910;2022-10-16T09:33:34;16.10;99.90
22629;DHT22;11481;53.694;9.910;2022-10-16T09:36:03;16.10;99.90
22629;DHT22;11481;53.694;9.910;2022-10-16T09:38:33;16.20;99.90
22629;DHT22;11481;53.694;9.910;2022-10-16T09:41:02;16.20;99.90
22629;DHT22;11481;53.694;9.910;2022-10-16T09:43:51;16.20;99.90
22629;DHT22;11481;53.694;9.910;2022-10-16T09:48:57;16.20;99.90
22629;DHT22;11481;53.694;9.910;2022-10-16T09:51:32;16.30;99.90
22629;DHT22;11481;53.694;9.910;2022-10-16T09:56:37;16.30;99.90
22629;DHT22;11481;53.694;9.910;2022-10-16T09:59:15;16.40;99.90
22629;DHT22;11481;53.694;9.910;2022-10-16T10:01:48;16.50;99.90
22629;DHT22;11481;53.694;9.910;2022-10-16T10:04:15;16.60;99.90
22629;DHT22;11481;53.694;9.910;2022-10-16T10:06:46;16.60;99.90
22629;DHT22;11481;53.694;9.910;2022-10-16T10:09:27;16.60;99.90
22629;DHT22;11481;53.694;9.910;2022-10-16T10:12:02;16.70;99.90
22629;DHT22;11481;53.694;9.910;2022-10-16T10:14:38;16.60;99.90
22629;DHT22;11481;53.694;9.910;2022-10-16T10:20:00;16.60;99.90
22629;DHT22;11481;53.694;9.910;2022-10-16T10:22:38;16.70;99.90
22629;DHT22;11481;53.694;9.910;2022-10-16T10:33:30;16.80;99.90
22629;DHT22;11481;53.694;9.910;2022-10-16T10:38:58;17.00;99.90
22629;DHT22;11481;53.694;9.910;2022-10-16T10:50:03;17.20;99.90
22629;DHT22;11481;53.694;9.910;2022-10-16T10:52:42;17.30;99.90
22629;DHT22;11481;53.694;9.910;2022-10-16T10:58:18;17.50;99.90
22629;DHT22;11481;53.694;9.910;2022-10-16T11:03:42;17.50;99.90
22629;DHT22;11481;53.694;9.910;2022-10-16T11:06:28;17.60;99.90
22629;DHT22;11481;53.694;9.910;2022-10-16T11:09:10;17.60;99.90
22629;DHT22;11481;53.694;9.910;2022-10-16T11:11:56;17.50;99.90
22629;DHT22;11481;53.694;9.910;2022-10-16T11:17:25;17.60;99.90
22629;DHT22;11481;53.694;9.910;2022-10-16T11:22:53;17.70;99.90
22629;DHT22;11481;53.694;9.910;2022-10-16T11:25:26;17.80;99.90
22629;DHT22;11481;53.694;9.910;2022-10-16T11:28:11;18.00;99.90
22629;DHT22;11481;53.694;9.910;2022-10-16T11:30:49;18.10;99.90
22629;DHT22;11481;53.694;9.910;2022-10-16T11:33:28;18.20;99.90
22629;DHT22;11481;53.694;9.910;2022-10-16T11:36:21;17.90;99.90
22629;DHT22;11481;53.694;9.910;2022-10-16T11:39:04;17.60;99.90
22629;DHT22;11481;53.694;9.910;2022-10-16T11:41:45;17.60;99.90
22629;DHT22;11481;53.694;9.910;2022-10-16T11:44:48;17.60;99.90
22629;DHT22;11481;53.694;9.910;2022-10-16T11:50:48;17.40;99.90
22629;DHT22;11481;53.694;9.910;2022-10-16T11:53:32;17.50;99.90
22629;DHT22;11481;53.694;9.910;2022-10-16T11:56:03;17.70;99.90
22629;DHT22;11481;53.694;9.910;2022-10-16T12:01:41;17.90;99.90
22629;DHT22;11481;53.694;9.910;2022-10-16T12:04:23;17.80;99.90
22629;DHT22;11481;53.694;9.910;2022-10-16T12:07:07;17.60;99.90
22629;DHT22;11481;53.694;9.910;2022-10-16T12:09:38;17.70;99.90
22629;DHT22;11481;53.694;9.910;2022-10-16T12:12:24;17.70;99.90
22629;DHT22;11481;53.694;9.910;2022-10-16T12:15:24;17.80;99.90
22629;DHT22;11481;53.694;9.910;2022-10-16T12:18:24;17.90;99.90
22629;DHT22;11481;53.694;9.910;2022-10-16T12:20:58;18.10;99.90
22629;DHT22;11481;53.694;9.910;2022-10-16T12:23:56;18.40;99.90
22629;DHT22;11481;53.694;9.910;2022-10-16T12:26:36;18.40;99.90
22629;DHT22;11481;53.694;9.910;2022-10-16T12:31:51;18.40;99.90
22629;DHT22;11481;53.694;9.910;2022-10-16T12:34:43;18.40;99.90
22629;DHT22;11481;53.694;9.910;2022-10-16T12:37:14;18.10;99.90
22629;DHT22;11481;53.694;9.910;2022-10-16T12:39:41;18.10;99.90
22629;DHT22;11481;53.694;9.910;2022-10-16T12:44:53;18.10;99.90
22629;DHT22;11481;53.694;9.910;2022-10-16T12:49:58;18.10;99.90
22629;DHT22;11481;53.694;9.910;2022-10-16T12:55:01;18.10;99.90
22629;DHT22;11481;53.694;9.910;2022-10-16T13:06:11;18.20;99.90
22629;DHT22;11481;53.694;9.910;2022-10-16T13:12:02;18.30;99.90
22629;DHT22;11481;53.694;9.910;2022-10-16T13:18:03;18.30;99.90
22629;DHT22;11481;53.694;9.910;2022-10-16T13:24:02;18.50;99.90
22629;DHT22;11481;53.694;9.910;2022-10-16T13:29:12;18.50;99.90
22629;DHT22;11481;53.694;9.910;2022-10-16T13:31:40;18.40;99.90
22629;DHT22;11481;53.694;9.910;2022-10-16T13:34:21;18.40;99.90
22629;DHT22;11481;53.694;9.910;2022-10-16T13:36:51;18.50;99.90
22629;DHT22;11481;53.694;9.910;2022-10-16T13:39:28;18.50;99.90
22629;DHT22;11481;53.694;9.910;2022-10-16T13:42:22;18.60;99.90
22629;DHT22;11481;53.694;9.910;2022-10-16T13:44:55;18.80;99.90
22629;DHT22;11481;53.694;9.910;2022-10-16T13:47:26;18.60;99.90
22629;DHT22;11481;53.694;9.910;2022-10-16T13:50:05;18.60;99.90
22629;DHT22;11481;53.694;9.910;2022-10-16T13:52:32;18.50;99.90
22629;DHT22;11481;53.694;9.910;2022-10-16T13:54:59;18.30;99.90
22629;DHT22;11481;53.694;9.910;2022-10-16T13:57:28;18.30;99.90
22629;DHT22;11481;53.694;9.910;2022-10-16T13:59:55;18.30;99.90
22629;DHT22;11481;53.694;9.910;2022-10-16T14:02:42;18.50;99.90
22629;DHT22;11481;53.694;9.910;2022-10-16T14:05:09;18.60;99.90
22629;DHT22;11481;53.694;9.910;2022-10-16T14:07:38;18.70;99.90
22629;DHT22;11481;53.694;9.910;2022-10-16T14:10:17;18.50;99.90
22629;DHT22;11481;53.694;9.910;2022-10-16T14:12:44;18.30;99.90
22629;DHT22;11481;53.694;9.910;2022-10-16T14:15:21;18.10;99.90
22629;DHT22;11481;53.694;9.910;2022-10-16T14:17:50;18.10;99.90
22629;DHT22;11481;53.694;9.910;2022-10-16T14:20:18;18.30;99.90
22629;DHT22;11481;53.694;9.910;2022-10-16T14:22:45;18.30;99.90
22629;DHT22;11481;53.694;9.910;2022-10-16T14:25:39;18.40;99.90
22629;DHT22;11481;53.694;9.910;2022-10-16T14:28:16;18.60;99.90
22629;DHT22;11481;53.694;9.910;2022-10-16T14:30:55;18.70;99.90
22629;DHT22;11481;53.694;9.910;2022-10-16T14:33:32;18.70;99.90
22629;DHT22;11481;53.694;9.910;2022-10-16T14:38:38;18.60;99.90
22629;DHT22;11481;53.694;9.910;2022-10-16T14:41:05;18.60;99.90
22629;DHT22;11481;53.694;9.910;2022-10-16T14:43:37;18.50;99.90
22629;DHT22;11481;53.694;9.910;2022-10-16T14:46:16;18.50;99.90
22629;DHT22;11481;53.694;9.910;2022-10-16T14:48:49;18.40;99.90
22629;DHT22;11481;53.694;9.910;2022-10-16T14:51:18;18.50;99.90
22629;DHT22;11481;53.694;9.910;2022-10-16T14:53:45;18.50;99.90
22629;DHT22;11481;53.694;9.910;2022-10-16T14:56:23;18.40;99.90
22629;DHT22;11481;53.694;9.910;2022-10-16T14:58:51;18.40;99.90
22629;DHT22;11481;53.694;9.910;2022-10-16T15:01:18;18.60;99.90
22629;DHT22;11481;53.694;9.910;2022-10-16T15:03:45;18.30;99.90
22629;DHT22;11481;53.694;9.910;2022-10-16T15:06:13;18.20;99.90
22629;DHT22;11481;53.694;9.910;2022-10-16T15:08:40;18.20;99.90
22629;DHT22;11481;53.694;9.910;2022-10-16T15:11:18;18.30;99.90
22629;DHT22;11481;53.694;9.910;2022-10-16T15:13:46;18.30;99.90
22629;DHT22;11481;53.694;9.910;2022-10-16T15:16:15;18.40;99.90
22629;DHT22;11481;53.694;9.910;2022-10-16T15:18:42;18.30;99.90
22629;DHT22;11481;53.694;9.910;2022-10-16T15:21:24;18.30;99.90
22629;DHT22;11481;53.694;9.910;2022-10-16T15:23:51;18.30;99.90
22629;DHT22;11481;53.694;9.910;2022-10-16T15:26:17;18.50;99.90
22629;DHT22;11481;53.694;9.910;2022-10-16T15:28:44;18.60;99.90
22629;DHT22;11481;53.694;9.910;2022-10-16T15:31:11;18.60;99.90
22629;DHT22;11481;53.694;9.910;2022-10-16T15:33:37;18.50;99.90
22629;DHT22;11481;53.694;9.910;2022-10-16T15:36:06;18.50;99.90
22629;DHT22;11481;53.694;9.910;2022-10-16T15:38:33;18.50;99.90
22629;DHT22;11481;53.694;9.910;2022-10-16T15:41:04;18.50;99.90
22629;DHT22;11481;53.694;9.910;2022-10-16T15:43:30;18.40;99.90
22629;DHT22;11481;53.694;9.910;2022-10-16T15:46:03;18.30;99.90
22629;DHT22;11481;53.694;9.910;2022-10-16T15:48:30;18.20;99.90
22629;DHT22;11481;53.694;9.910;2022-10-16T15:50:57;18.20;99.90
22629;DHT22;11481;53.694;9.910;2022-10-16T15:53:24;18.10;99.90
22629;DHT22;11481;53.694;9.910;2022-10-16T15:55:50;18.10;99.90
22629;DHT22;11481;53.694;9.910;2022-10-16T15:58:17;18.00;99.90
22629;DHT22;11481;53.694;9.910;2022-10-16T16:00:44;18.00;99.90
22629;DHT22;11481;53.694;9.910;2022-10-16T16:03:10;17.80;99.90
22629;DHT22;11481;53.694;9.910;2022-10-16T16:05:38;17.80;99.90
22629;DHT22;11481;53.694;9.910;2022-10-16T16:08:11;17.70;99.90
22629;DHT22;11481;53.694;9.910;2022-10-16T16:10:38;17.60;99.90
22629;DHT22;11481;53.694;9.910;2022-10-16T16:13:05;17.60;99.90
22629;DHT22;11481;53.694;9.910;2022-10-16T16:15:31;17.60;99.90
22629;DHT22;11481;53.694;9.910;2022-10-16T16:17:58;17.60;99.90
22629;DHT22;11481;53.694;9.910;2022-10-16T16:20:25;17.50;99.90
22629;DHT22;11481;53.694;9.910;2022-10-16T16:22:51;17.50;99.90
22629;DHT22;11481;53.694;9.910;2022-10-16T16:25:18;17.60;99.90
22629;DHT22;11481;53.694;9.910;2022-10-16T16:27:45;17.50;99.90
22629;DHT22;11481;53.694;9.910;2022-10-16T16:30:11;17.50;99.90
22629;DHT22;11481;53.694;9.910;2022-10-16T16:32:45;17.40;99.90
22629;DHT22;11481;53.694;9.910;2022-10-16T16:35:11;17.40;99.90
22629;DHT22;11481;53.694;9.910;2022-10-16T16:37:38;17.20;99.90
22629;DHT22;11481;53.694;9.910;2022-10-16T16:40:05;17.10;99.90
22629;DHT22;11481;53.694;9.910;2022-10-16T16:42:32;17.10;99.90
22629;DHT22;11481;53.694;9.910;2022-10-16T16:44:59;17.20;99.90
22629;DHT22;11481;53.694;9.910;2022-10-16T16:47:26;17.30;99.90
22629;DHT22;11481;53.694;9.910;2022-10-16T16:49:53;17.20;99.90
22629;DHT22;11481;53.694;9.910;2022-10-16T16:52:20;17.20;99.90
22629;DHT22;11481;53.694;9.910;2022-10-16T16:54:47;17.10;99.90
22629;DHT22;11481;53.694;9.910;2022-10-16T16:57:19;17.00;99.90
22629;DHT22;11481;53.694;9.910;2022-10-16T16:59:45;16.90;99.90
22629;DHT22;11481;53.694;9.910;2022-10-16T17:02:12;16.80;99.90
22629;DHT22;11481;53.694;9.910;2022-10-16T17:04:39;16.80;99.90
22629;DHT22;11481;53.694;9.910;2022-10-16T17:07:06;16.70;99.90
22629;DHT22;11481;53.694;9.910;2022-10-16T17:09:33;16.80;99.90
22629;DHT22;11481;53.694;9.910;2022-10-16T17:11:59;16.90;99.90
22629;DHT22;11481;53.694;9.910;2022-10-16T17:14:26;17.10;99.90
22629;DHT22;11481;53.694;9.910;2022-10-16T17:16:53;17.00;99.90
22629;DHT22;11481;53.694;9.910;2022-10-16T17:19:19;17.00;99.90
22629;DHT22;11481;53.694;9.910;2022-10-16T17:21:50;17.20;99.90
22629;DHT22;11481;53.694;9.910;2022-10-16T17:24:17;17.30;99.90
22629;DHT22;11481;53.694;9.910;2022-10-16T17:26:46;17.40;99.90
22629;DHT22;11481;53.694;9.910;2022-10-16T17:29:15;17.40;99.90
22629;DHT22;11481;53.694;9.910;2022-10-16T17:31:41;17.50;99.90
22629;DHT22;11481;53.694;9.910;2022-10-16T17:34:08;17.50;99.90
22629;DHT22;11481;53.694;9.910;2022-10-16T17:36:39;17.50;99.90
22629;DHT22;11481;53.694;9.910;2022-10-16T17:39:11;17.40;99.90
22629;DHT22;11481;53.694;9.910;2022-10-16T17:41:38;17.40;99.90
22629;DHT22;11481;53.694;9.910;2022-10-16T17:44:06;17.40;99.90